sensor_id;sensor_type;location;lat;lon;timestamp;pressure;altitude;pressure_sealevel;temperature;humidity
63281;BME280;49406;51.044;3.766;2024-02-28T00:01:11;102138.98;;;3.74;100.00
63281;BME280;49406;51.044;3.766;2024-02-28T00:03:46;102138.50;;;3.72;100.00
63281;BME280;49406;51.044;3.766;2024-02-28T00:06:21;102137.95;;;3.71;100.00
63281;BME280;49406;51.044;3.766;2024-02-28T00:08:55;102137.64;;;3.69;100.00
63281;BME280;49406;51.044;3.766;2024-02-28T00:11:30;102134.71;;;3.63;100.00
63281;BME280;49406;51.044;3.766;2024-02-28T00:14:05;102136.11;;;3.54;100.00
63281;BME280;49406;51.044;3.766;2024-02-28T00:16:43;102134.52;;;3.45;100.00
63281;BME280;49406;51.044;3.766;2024-02-28T00:19:17;102134.89;;;3.37;100.00
63281;BME280;49406;51.044;3.766;2024-02-28T00:21:53;102132.70;;;3.25;100.00
63281;BME280;49406;51.044;3.766;2024-02-28T00:24:28;102132.45;;;3.21;100.00
63281;BME280;49406;51.044;3.766;2024-02-28T00:27:04;102131.41;;;3.18;100.00
63281;BME280;49406;51.044;3.766;2024-02-28T00:29:38;102130.47;;;3.11;100.00
63281;BME280;49406;51.044;3.766;2024-02-28T00:32:13;102133.05;;;3.05;100.00
63281;BME280;49406;51.044;3.766;2024-02-28T00:34:47;102131.64;;;2.99;100.00
63281;BME280;49406;51.044;3.766;2024-02-28T00:37:22;102130.80;;;3.05;100.00
63281;BME280;49406;51.044;3.766;2024-02-28T00:39:55;102127.42;;;3.09;100.00
63281;BME280;49406;51.044;3.766;2024-02-28T00:42:29;102129.55;;;3.07;100.00
63281;BME280;49406;51.044;3.766;2024-02-28T00:45:05;102134.28;;;3.08;100.00
63281;BME280;49406;51.044;3.766;2024-02-28T00:47:39;102125.86;;;3.09;100.00
63281;BME280;49406;51.044;3.766;2024-02-28T00:50:14;102124.54;;;3.19;100.00
63281;BME280;49406;51.044;3.766;2024-02-28T00:52:49;102120.53;;;3.13;100.00
63281;BME280;49406;51.044;3.766;2024-02-28T00:55:23;102116.41;;;3.10;100.00
63281;BME280;49406;51.044;3.766;2024-02-28T00:57:58;102112.41;;;3.09;100.00
63281;BME280;49406;51.044;3.766;2024-02-28T01:00:32;102116.79;;;3.02;100.00
63281;BME280;49406;51.044;3.766;2024-02-28T01:03:08;102114.96;;;2.97;100.00
63281;BME280;49406;51.044;3.766;2024-02-28T01:05:44;102119.79;;;2.94;100.00
63281;BME280;49406;51.044;3.766;2024-02-28T01:08:19;102115.53;;;2.86;100.00
63281;BME280;49406;51.044;3.766;2024-02-28T01:10:53;102118.29;;;2.81;100.00
63281;BME280;49406;51.044;3.766;2024-02-28T01:13:28;102121.00;;;2.74;100.00
63281;BME280;49406;51.044;3.766;2024-02-28T01:16:03;102121.91;;;2.72;100.00
63281;BME280;49406;51.044;3.766;2024-02-28T01:18:37;102121.25;;;2.69;100.00
63281;BME280;49406;51.044;3.766;2024-02-28T01:21:12;102124.61;;;2.68;100.00
63281;BME280;49406;51.044;3.766;2024-02-28T01:23:46;102122.09;;;2.66;100.00
63281;BME280;49406;51.044;3.766;2024-02-28T01:26:21;102121.63;;;2.64;100.00
63281;BME280;49406;51.044;3.766;2024-02-28T01:28:55;102112.95;;;2.58;100.00
63281;BME280;49406;51.044;3.766;2024-02-28T01:31:30;102120.55;;;2.55;100.00
63281;BME280;49406;51.044;3.766;2024-02-28T01:34:05;102125.08;;;2.53;100.00
63281;BME280;49406;51.044;3.766;2024-02-28T01:36:39;102121.79;;;2.61;100.00
63281;BME280;49406;51.044;3.766;2024-02-28T01:39:14;102121.73;;;2.66;100.00
63281;BME280;49406;51.044;3.766;2024-02-28T01:41:53;102121.89;;;2.66;100.00
63281;BME280;49406;51.044;3.766;2024-02-28T01:44:28;102124.48;;;2.68;100.00
63281;BME280;49406;51.044;3.766;2024-02-28T01:47:03;102124.27;;;2.74;100.00
63281;BME280;49406;51.044;3.766;2024-02-28T01:49:38;102123.94;;;2.77;100.00
63281;BME280;49406;51.044;3.766;2024-02-28T01:52:13;102123.29;;;2.81;100.00
63281;BME280;49406;51.044;3.766;2024-02-28T01:54:48;102125.71;;;2.84;100.00
63281;BME280;49406;51.044;3.766;2024-02-28T01:57:22;102125.67;;;2.88;100.00
63281;BME280;49406;51.044;3.766;2024-02-28T01:59:57;102125.52;;;2.92;100.00
63281;BME280;49406;51.044;3.766;2024-02-28T02:02:33;102120.41;;;2.96;100.00
63281;BME280;49406;51.044;3.766;2024-02-28T02:05:09;102120.64;;;2.97;100.00
63281;BME280;49406;51.044;3.766;2024-02-28T02:07:44;102119.23;;;2.93;100.00
63281;BME280;49406;51.044;3.766;2024-02-28T02:10:18;102121.09;;;2.89;100.00
63281;BME280;49406;51.044;3.766;2024-02-28T02:12:53;102120.25;;;2.85;100.00
63281;BME280;49406;51.044;3.766;2024-02-28T02:15:27;102117.39;;;2.80;100.00
63281;BME280;49406;51.044;3.766;2024-02-28T02:18:04;102118.95;;;2.71;100.00
63281;BME280;49406;51.044;3.766;2024-02-28T02:20:44;102118.22;;;2.62;100.00
63281;BME280;49406;51.044;3.766;2024-02-28T02:23:17;102118.45;;;2.54;100.00
63281;BME280;49406;51.044;3.766;2024-02-28T02:25:51;102124.67;;;2.47;100.00
63281;BME280;49406;51.044;3.766;2024-02-28T02:28:26;102118.73;;;2.39;100.00
63281;BME280;49406;51.044;3.766;2024-02-28T02:31:01;102115.40;;;2.33;100.00
63281;BME280;49406;51.044;3.766;2024-02-28T02:33:35;102116.09;;;2.28;100.00
63281;BME280;49406;51.044;3.766;2024-02-28T02:36:10;102119.54;;;2.33;100.00
63281;BME280;49406;51.044;3.766;2024-02-28T02:38:45;102116.58;;;2.33;100.00
63281;BME280;49406;51.044;3.766;2024-02-28T02:41:19;102112.14;;;2.33;100.00
63281;BME280;49406;51.044;3.766;2024-02-28T02:43:54;102116.22;;;2.38;100.00
63281;BME280;49406;51.044;3.766;2024-02-28T02:46:28;102121.39;;;2.40;100.00
63281;BME280;49406;51.044;3.766;2024-02-28T02:49:03;102121.75;;;2.44;100.00
63281;BME280;49406;51.044;3.766;2024-02-28T02:51:37;102123.52;;;2.45;100.00
63281;BME280;49406;51.044;3.766;2024-02-28T02:54:12;102122.33;;;2.47;100.00
63281;BME280;49406;51.044;3.766;2024-02-28T02:56:45;102124.77;;;2.53;100.00
63281;BME280;49406;51.044;3.766;2024-02-28T02:59:20;102128.20;;;2.59;100.00
63281;BME280;49406;51.044;3.766;2024-02-28T03:01:55;102133.65;;;2.63;100.00
63281;BME280;49406;51.044;3.766;2024-02-28T03:04:29;102134.41;;;2.67;100.00
63281;BME280;49406;51.044;3.766;2024-02-28T03:07:04;102133.09;;;2.65;100.00
63281;BME280;49406;51.044;3.766;2024-02-28T03:09:39;102136.23;;;2.66;100.00
63281;BME280;49406;51.044;3.766;2024-02-28T03:12:13;102128.77;;;2.68;100.00
63281;BME280;49406;51.044;3.766;2024-02-28T03:14:48;102126.65;;;2.70;100.00
63281;BME280;49406;51.044;3.766;2024-02-28T03:17:22;102129.05;;;2.73;100.00
63281;BME280;49406;51.044;3.766;2024-02-28T03:19:57;102126.88;;;2.80;100.00
63281;BME280;49406;51.044;3.766;2024-02-28T03:22:31;102123.44;;;3.00;100.00
63281;BME280;49406;51.044;3.766;2024-02-28T03:25:08;102124.27;;;3.17;100.00
63281;BME280;49406;51.044;3.766;2024-02-28T03:27:44;102117.17;;;3.29;100.00
63281;BME280;49406;51.044;3.766;2024-02-28T03:30:19;102110.45;;;3.41;100.00
63281;BME280;49406;51.044;3.766;2024-02-28T03:32:53;102105.73;;;3.52;100.00
63281;BME280;49406;51.044;3.766;2024-02-28T03:35:28;102107.77;;;3.64;100.00
63281;BME280;49406;51.044;3.766;2024-02-28T03:38:03;102104.83;;;3.73;100.00
63281;BME280;49406;51.044;3.766;2024-02-28T03:40:37;102108.52;;;3.80;100.00
63281;BME280;49406;51.044;3.766;2024-02-28T03:43:12;102105.73;;;3.86;100.00
63281;BME280;49406;51.044;3.766;2024-02-28T03:45:45;102105.56;;;3.92;100.00
63281;BME280;49406;51.044;3.766;2024-02-28T03:48:20;102104.85;;;3.99;100.00
63281;BME280;49406;51.044;3.766;2024-02-28T03:50:54;102100.36;;;4.11;100.00
63281;BME280;49406;51.044;3.766;2024-02-28T03:53:29;102100.91;;;4.18;100.00
63281;BME280;49406;51.044;3.766;2024-02-28T03:56:04;102102.02;;;4.26;100.00
63281;BME280;49406;51.044;3.766;2024-02-28T03:58:39;102102.66;;;4.32;100.00
63281;BME280;49406;51.044;3.766;2024-02-28T04:01:14;102102.30;;;4.37;100.00
63281;BME280;49406;51.044;3.766;2024-02-28T04:03:48;102100.05;;;4.44;100.00
63281;BME280;49406;51.044;3.766;2024-02-28T04:06:23;102100.89;;;4.47;100.00
63281;BME280;49406;51.044;3.766;2024-02-28T04:08:56;102103.26;;;4.49;100.00
63281;BME280;49406;51.044;3.766;2024-02-28T04:11:30;102103.90;;;4.51;100.00
63281;BME280;49406;51.044;3.766;2024-02-28T04:14:06;102104.19;;;4.57;100.00
63281;BME280;49406;51.044;3.766;2024-02-28T04:16:43;102101.59;;;4.70;100.00
63281;BME280;49406;51.044;3.766;2024-02-28T04:19:18;102100.20;;;4.77;100.00
63281;BME280;49406;51.044;3.766;2024-02-28T04:21:53;102101.17;;;4.82;100.00
63281;BME280;49406;51.044;3.766;2024-02-28T04:24:27;102100.65;;;4.88;100.00
63281;BME280;49406;51.044;3.766;2024-02-28T04:27:02;102103.64;;;4.93;100.00
63281;BME280;49406;51.044;3.766;2024-02-28T04:29:39;102105.33;;;4.99;100.00
63281;BME280;49406;51.044;3.766;2024-02-28T04:32:13;102110.09;;;4.97;100.00
63281;BME280;49406;51.044;3.766;2024-02-28T04:34:48;102116.89;;;4.98;100.00
63281;BME280;49406;51.044;3.766;2024-02-28T04:37:22;102126.14;;;5.05;100.00
63281;BME280;49406;51.044;3.766;2024-02-28T04:39:57;102118.65;;;5.12;100.00
63281;BME280;49406;51.044;3.766;2024-02-28T04:42:32;102114.27;;;5.18;100.00
63281;BME280;49406;51.044;3.766;2024-02-28T04:45:08;102116.91;;;5.19;100.00
63281;BME280;49406;51.044;3.766;2024-02-28T04:47:42;102122.97;;;5.15;100.00
63281;BME280;49406;51.044;3.766;2024-02-28T04:50:17;102128.42;;;5.13;100.00
63281;BME280;49406;51.044;3.766;2024-02-28T04:52:52;102126.80;;;5.08;100.00
63281;BME280;49406;51.044;3.766;2024-02-28T04:55:26;102129.34;;;5.14;100.00
63281;BME280;49406;51.044;3.766;2024-02-28T04:58:01;102131.48;;;5.16;100.00
63281;BME280;49406;51.044;3.766;2024-02-28T05:00:36;102138.93;;;5.16;100.00
63281;BME280;49406;51.044;3.766;2024-02-28T05:03:10;102136.21;;;5.17;100.00
63281;BME280;49406;51.044;3.766;2024-02-28T05:05:45;102140.60;;;5.18;100.00
63281;BME280;49406;51.044;3.766;2024-02-28T05:08:19;102135.56;;;5.18;100.00
63281;BME280;49406;51.044;3.766;2024-02-28T05:10:53;102137.72;;;5.19;100.00
63281;BME280;49406;51.044;3.766;2024-02-28T05:13:28;102134.92;;;5.22;100.00
63281;BME280;49406;51.044;3.766;2024-02-28T05:16:03;102130.73;;;5.32;100.00
63281;BME280;49406;51.044;3.766;2024-02-28T05:18:38;102134.39;;;5.42;100.00
63281;BME280;49406;51.044;3.766;2024-02-28T05:21:12;102130.19;;;5.49;100.00
63281;BME280;49406;51.044;3.766;2024-02-28T05:23:47;102129.67;;;5.56;100.00
63281;BME280;49406;51.044;3.766;2024-02-28T05:26:22;102134.96;;;5.61;100.00
63281;BME280;49406;51.044;3.766;2024-02-28T05:28:56;102133.69;;;5.63;100.00
63281;BME280;49406;51.044;3.766;2024-02-28T05:31:31;102137.05;;;5.64;100.00
63281;BME280;49406;51.044;3.766;2024-02-28T05:34:04;102136.35;;;5.64;100.00
63281;BME280;49406;51.044;3.766;2024-02-28T05:36:40;102136.64;;;5.67;100.00
63281;BME280;49406;51.044;3.766;2024-02-28T05:39:15;102136.94;;;5.69;100.00
63281;BME280;49406;51.044;3.766;2024-02-28T05:41:49;102133.31;;;5.70;100.00
63281;BME280;49406;51.044;3.766;2024-02-28T05:44:24;102139.63;;;5.78;100.00
63281;BME280;49406;51.044;3.766;2024-02-28T05:46:59;102135.16;;;5.87;100.00
63281;BME280;49406;51.044;3.766;2024-02-28T05:49:33;102137.30;;;5.91;100.00
63281;BME280;49406;51.044;3.766;2024-02-28T05:52:09;102132.64;;;5.95;100.00
63281;BME280;49406;51.044;3.766;2024-02-28T05:54:43;102128.50;;;5.99;100.00
63281;BME280;49406;51.044;3.766;2024-02-28T05:57:18;102127.07;;;6.05;100.00
63281;BME280;49406;51.044;3.766;2024-02-28T05:59:52;102128.82;;;6.09;100.00
63281;BME280;49406;51.044;3.766;2024-02-28T06:02:27;102126.75;;;6.06;100.00
63281;BME280;49406;51.044;3.766;2024-02-28T06:05:02;102129.40;;;6.07;100.00
63281;BME280;49406;51.044;3.766;2024-02-28T06:07:36;102126.45;;;6.07;100.00
63281;BME280;49406;51.044;3.766;2024-02-28T06:10:11;102130.39;;;6.06;100.00
63281;BME280;49406;51.044;3.766;2024-02-28T06:12:46;102131.95;;;6.06;100.00
63281;BME280;49406;51.044;3.766;2024-02-28T06:15:20;102130.92;;;6.10;100.00
63281;BME280;49406;51.044;3.766;2024-02-28T06:17:57;102129.04;;;6.10;100.00
63281;BME280;49406;51.044;3.766;2024-02-28T06:20:33;102131.37;;;6.16;100.00
63281;BME280;49406;51.044;3.766;2024-02-28T06:23:08;102131.97;;;6.24;100.00
63281;BME280;49406;51.044;3.766;2024-02-28T06:25:43;102134.52;;;6.27;100.00
63281;BME280;49406;51.044;3.766;2024-02-28T06:28:17;102139.07;;;6.32;100.00
63281;BME280;49406;51.044;3.766;2024-02-28T06:30:52;102143.73;;;6.35;100.00
63281;BME280;49406;51.044;3.766;2024-02-28T06:33:26;102147.27;;;6.40;100.00
63281;BME280;49406;51.044;3.766;2024-02-28T06:36:01;102152.92;;;6.46;100.00
63281;BME280;49406;51.044;3.766;2024-02-28T06:38:35;102154.98;;;6.46;100.00
63281;BME280;49406;51.044;3.766;2024-02-28T06:41:10;102156.27;;;6.47;100.00
63281;BME280;49406;51.044;3.766;2024-02-28T06:43:44;102156.83;;;6.48;100.00
63281;BME280;49406;51.044;3.766;2024-02-28T06:46:19;102161.48;;;6.51;100.00
63281;BME280;49406;51.044;3.766;2024-02-28T06:48:53;102164.84;;;6.56;100.00
63281;BME280;49406;51.044;3.766;2024-02-28T06:51:28;102167.08;;;6.63;100.00
63281;BME280;49406;51.044;3.766;2024-02-28T06:54:02;102177.65;;;6.70;100.00
63281;BME280;49406;51.044;3.766;2024-02-28T06:56:39;102177.30;;;6.73;100.00
63281;BME280;49406;51.044;3.766;2024-02-28T06:59:14;102183.92;;;6.78;100.00
63281;BME280;49406;51.044;3.766;2024-02-28T07:01:48;102188.63;;;6.78;100.00
63281;BME280;49406;51.044;3.766;2024-02-28T07:04:23;102191.98;;;6.76;100.00
63281;BME280;49406;51.044;3.766;2024-02-28T07:06:58;102193.20;;;6.76;100.00
63281;BME280;49406;51.044;3.766;2024-02-28T07:09:32;102198.36;;;6.78;100.00
63281;BME280;49406;51.044;3.766;2024-02-28T07:12:07;102203.21;;;6.86;100.00
63281;BME280;49406;51.044;3.766;2024-02-28T07:14:42;102204.02;;;6.88;100.00
63281;BME280;49406;51.044;3.766;2024-02-28T07:17:16;102202.98;;;6.92;100.00
63281;BME280;49406;51.044;3.766;2024-02-28T07:19:51;102199.08;;;6.94;100.00
63281;BME280;49406;51.044;3.766;2024-02-28T07:22:26;102197.58;;;6.96;100.00
63281;BME280;49406;51.044;3.766;2024-02-28T07:25:00;102187.98;;;6.99;100.00
63281;BME280;49406;51.044;3.766;2024-02-28T07:27:35;102192.70;;;7.00;100.00
63281;BME280;49406;51.044;3.766;2024-02-28T07:30:10;102188.78;;;7.02;100.00
63281;BME280;49406;51.044;3.766;2024-02-28T07:32:45;102189.55;;;7.03;100.00
63281;BME280;49406;51.044;3.766;2024-02-28T07:35:20;102186.73;;;7.10;100.00
63281;BME280;49406;51.044;3.766;2024-02-28T07:37:57;102187.70;;;7.12;100.00
63281;BME280;49406;51.044;3.766;2024-02-28T07:40:31;102189.17;;;7.14;100.00
63281;BME280;49406;51.044;3.766;2024-02-28T07:43:08;102194.46;;;7.16;100.00
63281;BME280;49406;51.044;3.766;2024-02-28T07:45:44;102196.77;;;7.21;100.00
63281;BME280;49406;51.044;3.766;2024-02-28T07:48:19;102197.79;;;7.24;100.00
63281;BME280;49406;51.044;3.766;2024-02-28T07:50:53;102211.64;;;7.31;100.00
63281;BME280;49406;51.044;3.766;2024-02-28T07:53:28;102218.69;;;7.33;100.00
63281;BME280;49406;51.044;3.766;2024-02-28T07:56:03;102220.44;;;7.37;100.00
63281;BME280;49406;51.044;3.766;2024-02-28T07:58:38;102221.94;;;7.44;100.00
63281;BME280;49406;51.044;3.766;2024-02-28T08:01:13;102216.84;;;7.59;100.00
63281;BME280;49406;51.044;3.766;2024-02-28T08:03:49;102213.90;;;7.71;100.00
63281;BME280;49406;51.044;3.766;2024-02-28T08:06:23;102213.73;;;7.80;100.00
63281;BME280;49406;51.044;3.766;2024-02-28T08:08:58;102221.29;;;7.87;100.00
63281;BME280;49406;51.044;3.766;2024-02-28T08:11:33;102220.29;;;7.96;100.00
63281;BME280;49406;51.044;3.766;2024-02-28T08:14:07;102221.02;;;8.05;100.00
63281;BME280;49406;51.044;3.766;2024-02-28T08:16:42;102218.27;;;8.10;100.00
63281;BME280;49406;51.044;3.766;2024-02-28T08:19:17;102216.37;;;8.15;100.00
63281;BME280;49406;51.044;3.766;2024-02-28T08:21:51;102220.41;;;8.21;100.00
63281;BME280;49406;51.044;3.766;2024-02-28T08:24:26;102223.91;;;8.33;100.00
63281;BME280;49406;51.044;3.766;2024-02-28T08:27:01;102229.08;;;8.49;100.00
63281;BME280;49406;51.044;3.766;2024-02-28T08:29:35;102235.02;;;8.63;100.00
63281;BME280;49406;51.044;3.766;2024-02-28T08:32:11;102227.65;;;8.75;100.00
63281;BME280;49406;51.044;3.766;2024-02-28T08:34:46;102229.91;;;8.90;100.00
63281;BME280;49406;51.044;3.766;2024-02-28T08:37:21;102230.69;;;9.01;100.00
63281;BME280;49406;51.044;3.766;2024-02-28T08:39:55;102233.55;;;9.08;100.00
63281;BME280;49406;51.044;3.766;2024-02-28T08:42:31;102225.59;;;9.14;100.00
63281;BME280;49406;51.044;3.766;2024-02-28T08:45:09;102226.15;;;9.30;100.00
63281;BME280;49406;51.044;3.766;2024-02-28T08:47:43;102225.34;;;9.42;100.00
63281;BME280;49406;51.044;3.766;2024-02-28T08:50:19;102231.56;;;9.50;100.00
63281;BME280;49406;51.044;3.766;2024-02-28T08:52:53;102229.33;;;9.56;100.00
63281;BME280;49406;51.044;3.766;2024-02-28T08:55:28;102228.10;;;9.61;100.00
63281;BME280;49406;51.044;3.766;2024-02-28T08:58:03;102224.70;;;9.74;100.00
63281;BME280;49406;51.044;3.766;2024-02-28T09:00:38;102222.08;;;9.90;100.00
63281;BME280;49406;51.044;3.766;2024-02-28T09:03:13;102229.74;;;10.10;100.00
63281;BME280;49406;51.044;3.766;2024-02-28T09:05:47;102235.89;;;10.27;100.00
63281;BME280;49406;51.044;3.766;2024-02-28T09:08:22;102239.56;;;10.38;100.00
63281;BME280;49406;51.044;3.766;2024-02-28T09:10:55;102242.02;;;10.38;100.00
63281;BME280;49406;51.044;3.766;2024-02-28T09:13:29;102247.55;;;10.42;100.00
63281;BME280;49406;51.044;3.766;2024-02-28T09:16:05;102253.92;;;10.56;100.00
63281;BME280;49406;51.044;3.766;2024-02-28T09:18:39;102256.66;;;10.76;100.00
63281;BME280;49406;51.044;3.766;2024-02-28T09:21:15;102259.77;;;10.80;100.00
63281;BME280;49406;51.044;3.766;2024-02-28T09:23:50;102262.40;;;10.76;100.00
63281;BME280;49406;51.044;3.766;2024-02-28T09:26:24;102261.02;;;10.76;100.00
63281;BME280;49406;51.044;3.766;2024-02-28T09:28:59;102254.11;;;10.85;100.00
63281;BME280;49406;51.044;3.766;2024-02-28T09:31:33;102254.17;;;10.93;100.00
63281;BME280;49406;51.044;3.766;2024-02-28T09:34:08;102254.70;;;10.93;100.00
63281;BME280;49406;51.044;3.766;2024-02-28T09:36:43;102257.98;;;10.85;100.00
63281;BME280;49406;51.044;3.766;2024-02-28T09:39:18;102256.36;;;10.84;100.00
63281;BME280;49406;51.044;3.766;2024-02-28T09:41:55;102251.07;;;10.94;100.00
63281;BME280;49406;51.044;3.766;2024-02-28T09:44:30;102258.34;;;11.04;100.00
63281;BME280;49406;51.044;3.766;2024-02-28T09:47:05;102262.63;;;10.95;100.00
63281;BME280;49406;51.044;3.766;2024-02-28T09:49:42;102262.37;;;10.92;100.00
63281;BME280;49406;51.044;3.766;2024-02-28T09:52:19;102262.05;;;10.93;100.00
63281;BME280;49406;51.044;3.766;2024-02-28T09:54:54;102262.71;;;10.97;100.00
63281;BME280;49406;51.044;3.766;2024-02-28T09:57:28;102257.00;;;11.00;100.00
63281;BME280;49406;51.044;3.766;2024-02-28T10:00:05;102254.16;;;10.98;100.00
63281;BME280;49406;51.044;3.766;2024-02-28T10:02:44;102255.30;;;11.01;100.00
63281;BME280;49406;51.044;3.766;2024-02-28T10:05:17;102257.09;;;11.09;100.00
63281;BME280;49406;51.044;3.766;2024-02-28T10:07:53;102250.66;;;11.24;100.00
63281;BME280;49406;51.044;3.766;2024-02-28T10:10:28;102246.85;;;11.31;100.00
63281;BME280;49406;51.044;3.766;2024-02-28T10:13:02;102247.87;;;11.23;100.00
63281;BME280;49406;51.044;3.766;2024-02-28T10:15:37;102253.13;;;11.05;100.00
63281;BME280;49406;51.044;3.766;2024-02-28T10:18:12;102258.67;;;10.91;100.00
63281;BME280;49406;51.044;3.766;2024-02-28T10:20:47;102254.41;;;10.83;100.00
63281;BME280;49406;51.044;3.766;2024-02-28T10:23:21;102257.45;;;10.73;100.00
63281;BME280;49406;51.044;3.766;2024-02-28T10:25:57;102250.17;;;10.53;100.00
63281;BME280;49406;51.044;3.766;2024-02-28T10:28:31;102250.14;;;10.46;100.00
63281;BME280;49406;51.044;3.766;2024-02-28T10:31:06;102251.50;;;10.50;100.00
63281;BME280;49406;51.044;3.766;2024-02-28T10:33:43;102250.57;;;10.55;100.00
63281;BME280;49406;51.044;3.766;2024-02-28T10:36:17;102251.62;;;10.54;100.00
63281;BME280;49406;51.044;3.766;2024-02-28T10:38:52;102250.85;;;10.52;100.00
63281;BME280;49406;51.044;3.766;2024-02-28T10:41:29;102253.36;;;10.48;100.00
63281;BME280;49406;51.044;3.766;2024-02-28T10:44:04;102254.80;;;10.44;100.00
63281;BME280;49406;51.044;3.766;2024-02-28T10:46:40;102248.86;;;10.44;100.00
63281;BME280;49406;51.044;3.766;2024-02-28T10:49:15;102250.52;;;10.47;100.00
63281;BME280;49406;51.044;3.766;2024-02-28T10:51:51;102250.13;;;10.45;100.00
63281;BME280;49406;51.044;3.766;2024-02-28T10:54:30;102247.54;;;10.46;100.00
63281;BME280;49406;51.044;3.766;2024-02-28T10:57:06;102244.06;;;10.47;100.00
63281;BME280;49406;51.044;3.766;2024-02-28T10:59:44;102241.08;;;10.46;100.00
63281;BME280;49406;51.044;3.766;2024-02-28T11:02:19;102238.48;;;10.31;100.00
63281;BME280;49406;51.044;3.766;2024-02-28T11:04:54;102237.41;;;10.25;100.00
63281;BME280;49406;51.044;3.766;2024-02-28T11:07:31;102235.99;;;10.30;100.00
63281;BME280;49406;51.044;3.766;2024-02-28T11:10:09;102235.83;;;10.35;100.00
63281;BME280;49406;51.044;3.766;2024-02-28T11:12:54;102227.21;;;10.34;100.00
63281;BME280;49406;51.044;3.766;2024-02-28T11:15:28;102224.36;;;10.39;100.00
63281;BME280;49406;51.044;3.766;2024-02-28T11:18:10;102225.62;;;10.45;100.00
63281;BME280;49406;51.044;3.766;2024-02-28T11:20:46;102228.65;;;10.52;100.00
63281;BME280;49406;51.044;3.766;2024-02-28T11:23:22;102227.33;;;10.55;100.00
63281;BME280;49406;51.044;3.766;2024-02-28T11:25:57;102226.56;;;10.53;100.00
63281;BME280;49406;51.044;3.766;2024-02-28T11:28:31;102227.06;;;10.46;100.00
63281;BME280;49406;51.044;3.766;2024-02-28T11:31:06;102223.00;;;10.39;100.00
63281;BME280;49406;51.044;3.766;2024-02-28T11:33:40;102223.13;;;10.32;100.00
63281;BME280;49406;51.044;3.766;2024-02-28T11:36:15;102221.52;;;10.20;100.00
63281;BME280;49406;51.044;3.766;2024-02-28T11:38:50;102216.15;;;10.11;100.00
63281;BME280;49406;51.044;3.766;2024-02-28T11:41:28;102217.64;;;10.04;100.00
63281;BME280;49406;51.044;3.766;2024-02-28T11:44:02;102219.92;;;9.93;100.00
63281;BME280;49406;51.044;3.766;2024-02-28T11:46:37;102218.95;;;9.84;100.00
63281;BME280;49406;51.044;3.766;2024-02-28T11:49:12;102212.02;;;9.81;100.00
63281;BME280;49406;51.044;3.766;2024-02-28T11:51:46;102211.69;;;9.76;100.00
63281;BME280;49406;51.044;3.766;2024-02-28T11:54:21;102211.20;;;9.77;100.00
63281;BME280;49406;51.044;3.766;2024-02-28T11:56:56;102207.52;;;9.77;100.00
63281;BME280;49406;51.044;3.766;2024-02-28T11:59:31;102207.71;;;9.73;100.00
63281;BME280;49406;51.044;3.766;2024-02-28T12:02:14;102207.46;;;9.71;100.00
63281;BME280;49406;51.044;3.766;2024-02-28T12:04:47;102204.55;;;9.67;100.00
63281;BME280;49406;51.044;3.766;2024-02-28T12:07:23;102207.84;;;9.66;100.00
63281;BME280;49406;51.044;3.766;2024-02-28T12:09:58;102207.92;;;9.69;100.00
63281;BME280;49406;51.044;3.766;2024-02-28T12:12:33;102200.83;;;9.75;100.00
63281;BME280;49406;51.044;3.766;2024-02-28T12:15:09;102202.87;;;9.79;100.00
63281;BME280;49406;51.044;3.766;2024-02-28T12:17:44;102201.26;;;9.83;100.00
63281;BME280;49406;51.044;3.766;2024-02-28T12:20:19;102195.58;;;9.91;100.00
63281;BME280;49406;51.044;3.766;2024-02-28T12:22:54;102198.36;;;9.96;100.00
63281;BME280;49406;51.044;3.766;2024-02-28T12:25:29;102192.82;;;10.04;100.00
63281;BME280;49406;51.044;3.766;2024-02-28T12:28:04;102190.16;;;10.08;100.00
63281;BME280;49406;51.044;3.766;2024-02-28T12:30:42;102187.67;;;10.11;100.00
63281;BME280;49406;51.044;3.766;2024-02-28T12:33:17;102186.60;;;10.22;100.00
63281;BME280;49406;51.044;3.766;2024-02-28T12:35:51;102181.52;;;10.31;100.00
63281;BME280;49406;51.044;3.766;2024-02-28T12:38:26;102180.02;;;10.34;100.00
63281;BME280;49406;51.044;3.766;2024-02-28T12:41:01;102179.02;;;10.36;100.00
63281;BME280;49406;51.044;3.766;2024-02-28T12:43:35;102174.17;;;10.38;100.00
63281;BME280;49406;51.044;3.766;2024-02-28T12:46:10;102178.52;;;10.37;100.00
63281;BME280;49406;51.044;3.766;2024-02-28T12:48:44;102181.38;;;10.39;100.00
63281;BME280;49406;51.044;3.766;2024-02-28T12:51:38;102187.70;;;10.51;100.00
63281;BME280;49406;51.044;3.766;2024-02-28T12:54:12;102189.23;;;10.68;100.00
63281;BME280;49406;51.044;3.766;2024-02-28T12:56:47;102183.42;;;10.79;100.00
63281;BME280;49406;51.044;3.766;2024-02-28T12:59:22;102183.02;;;10.89;100.00
63281;BME280;49406;51.044;3.766;2024-02-28T13:01:57;102191.80;;;10.96;100.00
63281;BME280;49406;51.044;3.766;2024-02-28T13:04:32;102194.66;;;11.11;100.00
63281;BME280;49406;51.044;3.766;2024-02-28T13:07:06;102181.16;;;11.24;100.00
63281;BME280;49406;51.044;3.766;2024-02-28T13:09:41;102177.36;;;11.32;100.00
63281;BME280;49406;51.044;3.766;2024-02-28T13:12:16;102175.34;;;11.41;100.00
63281;BME280;49406;51.044;3.766;2024-02-28T13:14:52;102173.55;;;11.46;100.00
63281;BME280;49406;51.044;3.766;2024-02-28T13:17:27;102169.79;;;11.57;100.00
63281;BME280;49406;51.044;3.766;2024-02-28T13:20:02;102164.45;;;11.67;100.00
63281;BME280;49406;51.044;3.766;2024-02-28T13:22:37;102162.63;;;11.78;100.00
63281;BME280;49406;51.044;3.766;2024-02-28T13:25:12;102160.43;;;11.96;100.00
63281;BME280;49406;51.044;3.766;2024-02-28T13:27:47;102160.10;;;12.04;100.00